C E — WDI5089 — position and weather

sailwx.info

Track history (hours):
 
Tides and Currents Weather Stations Pressure Air Temp Water Temp Dewpoint Dewpoint Depression Visibility Wind Speed Wind Dir Waves Ship Positions

C E

Owner: Harley Marine Services, Inc, Seattle, WA. More information available from US FCC via Universal Licensing System and Coast Guard Vessel Documentation Center.

Last reported at 2018-Jun-23 21:18 UTC. Time now 2018-Jun-23 21:32 UTC.
Position N 47°16' W 122°25'.

Length 30 m; draft 6 m.

Type: Tow > 200 m length. MMSI: 367705050.

Date/timePositionNaut miles runAvg speedWind from/ knotsBaromVisibWave heightAir tempDewpointWater temp
2018-Jun-23 21:18N 47°16' W 122°25'0 0.0
2018-Jun-23 20:49N 47°16' W 122°25'0 0.0
2018-Jun-23 20:10N 47°16' W 122°25'0 0.0
2018-Jun-23 19:56N 47°16' W 122°25'0 0.0
2018-Jun-23 19:18N 47°16' W 122°25'0 0.0
2018-Jun-23 17:17N 47°16' W 122°25'0 0.0
2018-Jun-23 16:52N 47°16' W 122°25'0 0.2
2018-Jun-23 16:28N 47°16' W 122°25'1 2.0
2018-Jun-23 15:57N 47°16' W 122°26'0 0.7
2018-Jun-23 15:25N 47°16' W 122°26'0 0.0
2018-Jun-23 14:59N 47°16' W 122°26'0 0.0
2018-Jun-23 14:29N 47°16' W 122°26'0 0.0
2018-Jun-23 13:59N 47°16' W 122°26'0 0.0
2018-Jun-23 13:21N 47°16' W 122°26'0 0.0
2018-Jun-23 12:58N 47°16' W 122°26'0 0.0
2018-Jun-23 12:14N 47°16' W 122°26'0 0.0
2018-Jun-23 11:47N 47°16' W 122°26'0 0.0
2018-Jun-23 11:29N 47°16' W 122°26'0 0.0
2018-Jun-23 11:00N 47°16' W 122°26'0 0.0
2018-Jun-23 10:30N 47°16' W 122°26'0 0.0
2018-Jun-23 09:37N 47°16' W 122°26'0 0.0
2018-Jun-23 09:30N 47°16' W 122°26'0 0.0
2018-Jun-23 08:49N 47°16' W 122°26'0 0.0
2018-Jun-23 08:22N 47°16' W 122°26'0 0.0
2018-Jun-23 07:59N 47°16' W 122°26'0 0.0
2018-Jun-23 06:56N 47°16' W 122°26'0 0.0
2018-Jun-23 06:30N 47°16' W 122°26'0 0.0
2018-Jun-23 05:54N 47°16' W 122°26'0 0.0
2018-Jun-23 05:27N 47°16' W 122°26'0 0.0
2018-Jun-23 05:00N 47°16' W 122°26'1 1.5
2018-Jun-23 04:21N 47°16' W 122°27'0 1.0
2018-Jun-23 03:58N 47°17' W 122°27'1 0.9
2018-Jun-23 03:23N 47°17' W 122°28'1 2.1
2018-Jun-23 03:00N 47°18' W 122°28'2 4.5
2018-Jun-23 02:30N 47°20' W 122°27'3 5.1
2018-Jun-23 01:58N 47°22' W 122°24'2 4.9
2018-Jun-23 01:30N 47°23' W 122°22'2 4.9
2018-Jun-23 01:00N 47°26' W 122°24'3 5.0
2018-Jun-23 00:30N 47°28' W 122°25'2 4.9
2018-Jun-23 00:00N 47°30' W 122°26'2 4.9
2018-Jun-22 23:30N 47°33' W 122°27'3 5.0
2018-Jun-22 23:00N 47°35' W 122°28'2 4.8
2018-Jun-22 22:30N 47°37' W 122°28'2 4.4
2018-Jun-22 22:00N 47°40' W 122°28'2 4.1
2018-Jun-22 21:30N 47°42' W 122°28'2 4.1
2018-Jun-22 21:00N 47°44' W 122°28'2 4.6
2018-Jun-22 20:30N 47°46' W 122°27'2 4.4
2018-Jun-22 20:00N 47°48' W 122°28'2 4.6
2018-Jun-22 19:30N 47°50' W 122°28'3 5.0
2018-Jun-22 19:00N 47°53' W 122°29'3 5.3
2018-Jun-22 18:30N 47°55' W 122°31'3 6.0
2018-Jun-22 17:59N 47°57' W 122°35'3 6.0
2018-Jun-22 17:29N 47°60' W 122°37'21 4.8
2018-Jun-22 13:01N 48°20' W 122°47'1 5.8
2018-Jun-22 12:50N 48°21' W 122°46'2 5.8
2018-Jun-22 12:28N 48°23' W 122°45'3 5.9
2018-Jun-22 12:00N 48°26' W 122°45'3 5.9
2018-Jun-22 11:30N 48°29' W 122°45'4 7.0
2018-Jun-22 11:00N 48°32' W 122°45'4 7.3
2018-Jun-22 10:29N 48°36' W 122°45'3 6.0
2018-Jun-22 10:00N 48°38' W 122°44'3 5.4
2018-Jun-22 09:30N 48°41' W 122°44'3 4.3
2018-Jun-22 08:53N 48°44' W 122°46'2 3.7
2018-Jun-22 08:27N 48°45' W 122°46'2 4.4
2018-Jun-22 07:59N 48°47' W 122°45'2 0.2
2018-Jun-21 22:50N 48°49' W 122°43'1 1.9
2018-Jun-21 22:21N 48°48' W 122°44'1 2.9
2018-Jun-21 21:56N 48°47' W 122°44'2 3.5
2018-Jun-21 21:30N 48°45' W 122°45'2 4.4
2018-Jun-21 21:00N 48°43' W 122°44'2 3.2
2018-Jun-21 20:30N 48°42' W 122°43'2 3.1
2018-Jun-21 20:00N 48°40' W 122°42'2 3.7
2018-Jun-21 19:30N 48°39' W 122°43'2 3.4
2018-Jun-21 19:00N 48°37' W 122°44'2 4.3
2018-Jun-21 18:30N 48°35' W 122°45'3 5.1
2018-Jun-21 18:00N 48°33' W 122°45'2 5.0
2018-Jun-21 17:30N 48°30' W 122°44'24 5.9
2018-Jun-21 13:31N 48°07' W 122°39'1 8.8
2018-Jun-21 13:27N 48°06' W 122°39'5 9.2
2018-Jun-21 12:58N 48°02' W 122°37'5 9.1
2018-Jun-21 12:24N 47°57' W 122°33'3 8.5
2018-Jun-21 12:00N 47°56' W 122°29'4 8.7
2018-Jun-21 11:30N 47°51' W 122°27'4 8.1
2018-Jun-21 11:00N 47°47' W 122°26'4 7.9
2018-Jun-21 10:30N 47°43' W 122°26'4 8.0
2018-Jun-21 10:00N 47°40' W 122°27'4 7.9
2018-Jun-21 09:30N 47°36' W 122°26'4 7.6
2018-Jun-21 09:00N 47°32' W 122°25'4 7.6
2018-Jun-21 08:30N 47°28' W 122°24'4 7.3
2018-Jun-21 08:00N 47°25' W 122°22'3 5.8
2018-Jun-21 07:30N 47°22' W 122°22'4 7.3
2018-Jun-21 07:00N 47°20' W 122°26'3 5.5
2018-Jun-21 06:30N 47°17' W 122°27'1 2.7
2018-Jun-21 06:00N 47°16' W 122°26'0 0.0
2018-Jun-21 05:30N 47°16' W 122°26'0 0.0
2018-Jun-21 05:00N 47°16' W 122°26'0 0.0
2018-Jun-21 04:30N 47°16' W 122°26'0 0.0
2018-Jun-21 04:00N 47°16' W 122°26'0 0.0
2018-Jun-21 03:30N 47°16' W 122°26'0 0.0
2018-Jun-21 03:00N 47°16' W 122°26'0 0.0
2018-Jun-21 02:30N 47°16' W 122°26'1 2.9
2018-Jun-21 02:00N 47°17' W 122°25'1 0.4
2018-Jun-20 23:02N 47°16' W 122°24'0 4.6
2018-Jun-20 22:59N 47°16' W 122°24'2 3.2
2018-Jun-20 22:30N 47°16' W 122°26'0 0.0
2018-Jun-20 22:00N 47°16' W 122°26'0 0.0
2018-Jun-20 21:30N 47°16' W 122°26'0 0.0
2018-Jun-20 21:00N 47°16' W 122°26'0 0.0
2018-Jun-20 20:30N 47°16' W 122°26'0 0.0
2018-Jun-20 20:00N 47°16' W 122°26'0 0.0
2018-Jun-20 19:30N 47°16' W 122°26'0 0.0
2018-Jun-20 19:00N 47°16' W 122°26'0 0.0
2018-Jun-20 18:30N 47°16' W 122°26'0 0.0
2018-Jun-20 18:00N 47°16' W 122°26'0 0.0
2018-Jun-20 17:30N 47°16' W 122°26'0 0.0
2018-Jun-20 17:00N 47°16' W 122°26'0 0.0
2018-Jun-20 16:30N 47°16' W 122°26'0 0.0
2018-Jun-20 16:00N 47°16' W 122°26'0 0.0
2018-Jun-20 15:30N 47°16' W 122°26'2 3.2
2018-Jun-20 15:00N 47°17' W 122°27'1 2.4
2018-Jun-20 14:30N 47°18' W 122°28'3 5.8
2018-Jun-20 14:00N 47°21' W 122°26'3 6.2
2018-Jun-20 13:30N 47°23' W 122°23'3 5.1
2018-Jun-20 13:00N 47°25' W 122°23'3 5.7
2018-Jun-20 12:30N 47°28' W 122°25'3 5.6
2018-Jun-20 12:00N 47°30' W 122°26'3 5.8
2018-Jun-20 11:30N 47°33' W 122°27'3 5.4
2018-Jun-20 11:00N 47°36' W 122°28'3 5.4
2018-Jun-20 10:30N 47°39' W 122°28'3 5.3
2018-Jun-20 10:00N 47°41' W 122°28'3 5.5
2018-Jun-20 09:30N 47°44' W 122°27'3 5.1
2018-Jun-20 09:00N 47°46' W 122°27'3 5.5
2018-Jun-20 08:30N 47°49' W 122°28'3 5.4
2018-Jun-20 08:00N 47°52' W 122°29'3 5.1
2018-Jun-20 07:30N 47°54' W 122°30'3 5.4
2018-Jun-20 06:55N 47°56' W 122°33'3 5.7
2018-Jun-20 06:28N 47°58' W 122°36'3 6.6
2018-Jun-20 06:00N 48°01' W 122°38'18 6.3
2018-Jun-20 03:11N 48°17' W 122°48'1 6.3
2018-Jun-20 03:00N 48°18' W 122°47'4 6.2
2018-Jun-20 02:17N 48°23' W 122°46'2 5.6
2018-Jun-20 01:59N 48°24' W 122°45'3 6.0
2018-Jun-20 01:30N 48°27' W 122°44'3 5.8
2018-Jun-20 01:00N 48°30' W 122°45'3 6.2
2018-Jun-20 00:30N 48°33' W 122°45'3 6.3
2018-Jun-20 00:00N 48°36' W 122°45'4 7.4
2018-Jun-19 23:30N 48°40' W 122°44'4 7.0
2018-Jun-19 22:56N 48°44' W 122°46'4 0.5
2018-Jun-19 13:59N 48°48' W 122°45'3 3.8
2018-Jun-19 13:07N 48°44' W 122°45'1 4.4
2018-Jun-19 12:57N 48°44' W 122°44'2 5.0
2018-Jun-19 12:30N 48°42' W 122°43'3 5.0
2018-Jun-19 12:00N 48°40' W 122°41'2 4.3
2018-Jun-19 11:30N 48°38' W 122°39'3 5.3
2018-Jun-19 11:00N 48°36' W 122°36'3 5.8
2018-Jun-19 10:29N 48°33' W 122°34'2 3.5
2018-Jun-19 10:00N 48°32' W 122°35'1 1.8
2018-Jun-19 09:30N 48°31' W 122°36'0 0.0
2018-Jun-19 09:00N 48°31' W 122°36'0 0.0
2018-Jun-19 08:30N 48°31' W 122°36'0 0.0
2018-Jun-19 08:00N 48°31' W 122°36'0 0.0
2018-Jun-19 07:30N 48°31' W 122°36'0 0.0
2018-Jun-19 07:00N 48°31' W 122°36'0 0.0
2018-Jun-19 06:30N 48°31' W 122°36'0 0.0
2018-Jun-19 06:00N 48°31' W 122°36'0 0.0
2018-Jun-19 05:30N 48°31' W 122°36'0 0.0
2018-Jun-19 05:00N 48°31' W 122°36'0 0.0
2018-Jun-19 04:30N 48°31' W 122°36'0 0.0
2018-Jun-19 04:00N 48°31' W 122°36'0 0.0
2018-Jun-19 03:30N 48°31' W 122°36'0 0.0
2018-Jun-19 03:00N 48°31' W 122°36'0 0.0
2018-Jun-19 02:30N 48°31' W 122°36'0 0.0
2018-Jun-19 02:00N 48°31' W 122°36'0 0.0
2018-Jun-19 01:30N 48°31' W 122°36'0 0.0
2018-Jun-19 01:00N 48°31' W 122°36'0 0.0
2018-Jun-19 00:30N 48°31' W 122°36'0 0.0
2018-Jun-19 00:00N 48°31' W 122°36'0 0.0
2018-Jun-18 23:30N 48°31' W 122°36'0 0.0
2018-Jun-18 23:00N 48°31' W 122°36'0 0.0
2018-Jun-18 22:30N 48°31' W 122°36'0 0.0
2018-Jun-18 22:00N 48°31' W 122°36'0 0.0
2018-Jun-18 21:30N 48°31' W 122°36'0 0.0
2018-Jun-18 21:00N 48°31' W 122°36'0 0.0
2018-Jun-18 20:30N 48°31' W 122°36'0 0.0
2018-Jun-18 20:00N 48°31' W 122°36'0 0.0
2018-Jun-18 19:30N 48°31' W 122°36'0 0.0
2018-Jun-18 19:00N 48°31' W 122°36'0 0.0
2018-Jun-18 18:30N 48°31' W 122°36'0 0.0
2018-Jun-18 18:00N 48°31' W 122°36'0 0.0
2018-Jun-18 17:30N 48°31' W 122°36'0 0.0
2018-Jun-18 17:00N 48°31' W 122°36'0 0.0
2018-Jun-18 16:30N 48°31' W 122°36'0 0.0
2018-Jun-18 16:00N 48°31' W 122°36'0 0.0
2018-Jun-18 15:30N 48°31' W 122°36'0 0.0
2018-Jun-18 15:00N 48°31' W 122°36'0 0.0
2018-Jun-18 14:30N 48°31' W 122°36'0 0.0
2018-Jun-18 14:00N 48°31' W 122°36'0 0.0
2018-Jun-18 13:30N 48°31' W 122°36'0 0.0
2018-Jun-18 13:00N 48°31' W 122°36'0 0.0
2018-Jun-18 12:30N 48°31' W 122°36'0 0.0
2018-Jun-18 12:00N 48°31' W 122°36'0 0.0
2018-Jun-18 11:30N 48°31' W 122°36'0 0.0
2018-Jun-18 11:00N 48°31' W 122°36'0 0.0
2018-Jun-18 10:30N 48°31' W 122°36'0 0.0
2018-Jun-18 10:00N 48°31' W 122°36'0 0.0
2018-Jun-18 09:30N 48°31' W 122°36'0 0.0
2018-Jun-18 09:00N 48°31' W 122°36'0 0.0
2018-Jun-18 08:30N 48°31' W 122°36'0 0.0
2018-Jun-18 08:00N 48°31' W 122°36'0 0.0
2018-Jun-18 07:30N 48°31' W 122°36'0 0.0
2018-Jun-18 07:00N 48°31' W 122°36'0 0.0
2018-Jun-18 06:30N 48°31' W 122°36'0 0.0
2018-Jun-18 06:00N 48°31' W 122°36'0 0.0
2018-Jun-18 05:30N 48°31' W 122°36'0 0.0
2018-Jun-18 05:00N 48°31' W 122°36'0 0.0
2018-Jun-18 04:30N 48°31' W 122°36'0 0.0
2018-Jun-18 04:00N 48°31' W 122°36'0 0.0
2018-Jun-18 03:30N 48°31' W 122°36'0 0.0
2018-Jun-18 03:00N 48°31' W 122°36'0 0.0
2018-Jun-18 02:30N 48°31' W 122°36'0 0.0
2018-Jun-18 02:00N 48°31' W 122°36'0 0.0
2018-Jun-18 01:30N 48°31' W 122°36'1 1.1
2018-Jun-18 01:00N 48°31' W 122°37'4 8.3
2018-Jun-18 00:29N 48°30' W 122°43'2 3.6
2018-Jun-18 00:00N 48°28' W 122°44'4 6.5
2018-Jun-17 23:27N 48°25' W 122°44'19 5.7
2018-Jun-17 20:05N 48°06' W 122°39'310.3
2018-Jun-17 19:47N 48°02' W 122°38'310.0
2018-Jun-17 19:28N 47°60' W 122°36'4 9.5
2018-Jun-17 19:00N 47°57' W 122°31'4 8.2
2018-Jun-17 18:30N 47°53' W 122°28'4 7.9
2018-Jun-17 18:00N 47°49' W 122°27'4 7.6
2018-Jun-17 17:30N 47°45' W 122°26'4 7.4
2018-Jun-17 17:00N 47°42' W 122°27'4 7.2
2018-Jun-17 16:30N 47°38' W 122°27'4 7.2
2018-Jun-17 16:00N 47°35' W 122°26'4 7.1
2018-Jun-17 15:30N 47°31' W 122°25'3 6.9
2018-Jun-17 15:00N 47°28' W 122°24'3 6.9
2018-Jun-17 14:30N 47°25' W 122°22'3 5.9
2018-Jun-17 14:00N 47°22' W 122°22'3 6.8
2018-Jun-17 13:30N 47°20' W 122°26'2 4.4
2018-Jun-17 13:00N 47°18' W 122°27'1 2.6
2018-Jun-17 12:30N 47°16' W 122°27'1 1.7
2018-Jun-17 12:00N 47°16' W 122°26'0 0.0
2018-Jun-17 11:30N 47°16' W 122°26'0 0.0
2018-Jun-17 10:59N 47°16' W 122°26'0 0.0
2018-Jun-17 10:29N 47°16' W 122°26'0 0.0
2018-Jun-17 10:00N 47°16' W 122°26'0 0.0
2018-Jun-17 09:30N 47°16' W 122°26'0 0.0
2018-Jun-17 09:00N 47°16' W 122°26'0 0.0
2018-Jun-17 08:30N 47°16' W 122°26'0 0.0
2018-Jun-17 08:00N 47°16' W 122°26'0 0.0
2018-Jun-17 07:30N 47°16' W 122°26'0 0.0
2018-Jun-17 07:00N 47°16' W 122°26'0 0.0
2018-Jun-17 06:30N 47°16' W 122°26'0 0.0
2018-Jun-17 06:00N 47°16' W 122°26'0 0.0
2018-Jun-17 05:30N 47°16' W 122°26'0 0.0
2018-Jun-17 05:00N 47°16' W 122°26'0 0.0
2018-Jun-17 04:30N 47°16' W 122°26'0 0.0
2018-Jun-17 04:00N 47°16' W 122°26'0 0.0
2018-Jun-17 03:29N 47°16' W 122°26'0 0.0
2018-Jun-17 03:00N 47°16' W 122°26'0 0.0
2018-Jun-17 02:30N 47°16' W 122°26'0 0.0
2018-Jun-17 02:00N 47°16' W 122°26'0 0.0
2018-Jun-17 01:30N 47°16' W 122°26'0 0.0
2018-Jun-17 01:00N 47°16' W 122°26'0 0.0
2018-Jun-17 00:30N 47°16' W 122°26'0 0.0
2018-Jun-17 00:00N 47°16' W 122°26'0 0.0
2018-Jun-16 23:30N 47°16' W 122°26'0 0.0
2018-Jun-16 23:00N 47°16' W 122°26'0 0.0
2018-Jun-16 22:30N 47°16' W 122°26'0 0.0
2018-Jun-16 22:00N 47°16' W 122°26'0 0.0
2018-Jun-16 21:30N 47°16' W 122°26'0 0.0
2018-Jun-16 21:00N 47°16' W 122°26'1 2.1
2018-Jun-16 20:30N 47°16' W 122°27'2 3.1
2018-Jun-16 20:00N 47°18' W 122°28'0 0.8
2018-Jun-16 19:30N 47°18' W 122°28'2 4.8
2018-Jun-16 19:00N 47°20' W 122°27'3 5.2
2018-Jun-16 18:30N 47°22' W 122°24'2 4.6
2018-Jun-16 18:00N 47°24' W 122°23'3 5.5
2018-Jun-16 17:30N 47°27' W 122°25'3 5.2
2018-Jun-16 17:00N 47°29' W 122°26'3 5.2
2018-Jun-16 16:30N 47°32' W 122°27'3 5.5
2018-Jun-16 16:00N 47°34' W 122°28'3 5.4
2018-Jun-16 15:30N 47°37' W 122°28'3 5.5
2018-Jun-16 15:00N 47°40' W 122°28'3 5.7
2018-Jun-16 14:30N 47°43' W 122°28'3 5.8
2018-Jun-16 14:00N 47°45' W 122°27'3 5.5
2018-Jun-16 13:30N 47°48' W 122°28'3 5.4
2018-Jun-16 13:00N 47°51' W 122°29'3 5.4
2018-Jun-16 12:30N 47°53' W 122°30'3 5.4
2018-Jun-16 12:00N 47°56' W 122°32'4 6.4
2018-Jun-16 11:19N 47°59' W 122°36'2 6.0
2018-Jun-16 10:58N 48°01' W 122°38'3 5.8
2018-Jun-16 10:30N 48°03' W 122°39'25 5.1
2018-Jun-16 05:39N 48°27' W 122°45'11 5.1
2018-Jun-16 03:29N 48°38' W 122°44'3 4.0
2018-Jun-16 02:37N 48°42' W 122°45'1 3.9
2018-Jun-16 02:29N 48°42' W 122°45'4 2.4
2018-Jun-16 00:36N 48°47' W 122°45'0 0.0
2018-Jun-15 11:51N 48°47' W 122°46'2 3.2
2018-Jun-15 11:16N 48°45' W 122°45'1 3.2
2018-Jun-15 10:59N 48°44' W 122°45'2 3.3
2018-Jun-15 10:30N 48°43' W 122°44'3 5.9
2018-Jun-15 10:00N 48°40' W 122°42'3 5.9
2018-Jun-15 09:30N 48°37' W 122°44'3 5.8
2018-Jun-15 09:00N 48°34' W 122°45'3 5.7
2018-Jun-15 08:30N 48°31' W 122°45'3 5.6
2018-Jun-15 07:59N 48°29' W 122°44'2 5.1
2018-Jun-15 07:30N 48°26' W 122°44'20 5.7
2018-Jun-15 03:59N 48°06' W 122°39'5 7.8
2018-Jun-15 03:22N 48°02' W 122°37'3 7.5
2018-Jun-15 02:55N 47°59' W 122°34'3 7.4
2018-Jun-15 02:30N 47°57' W 122°31'3 5.9
2018-Jun-15 02:00N 47°54' W 122°28'3 5.9
2018-Jun-15 01:30N 47°51' W 122°27'3 6.9
2018-Jun-15 01:00N 47°48' W 122°26'3 6.7
2018-Jun-15 00:30N 47°45' W 122°26'3 5.8
2018-Jun-15 00:01N 47°42' W 122°26'2 4.7
2018-Jun-14 23:30N 47°39' W 122°27'3 6.3
2018-Jun-14 23:00N 47°37' W 122°24'3 5.5
2018-Jun-14 22:30N 47°35' W 122°21'0 0.2
2018-Jun-14 22:00N 47°35' W 122°21'1 1.8
2018-Jun-14 21:30N 47°34' W 122°21'0 0.0
2018-Jun-14 21:00N 47°34' W 122°21'0 0.0
2018-Jun-14 20:30N 47°34' W 122°21'0 0.0
2018-Jun-14 20:00N 47°34' W 122°21'0 0.0
2018-Jun-14 19:30N 47°34' W 122°21'0 0.0
2018-Jun-14 18:59N 47°34' W 122°21'0 0.0
2018-Jun-14 18:30N 47°34' W 122°21'0 0.0
2018-Jun-14 18:00N 47°34' W 122°21'1 1.8
2018-Jun-14 17:30N 47°35' W 122°21'0 0.6
2018-Jun-14 17:00N 47°36' W 122°21'1 2.3
2018-Jun-14 16:30N 47°36' W 122°22'3 6.1
2018-Jun-14 16:00N 47°34' W 122°26'4 7.8
2018-Jun-14 15:30N 47°31' W 122°25'4 8.0
2018-Jun-14 15:00N 47°27' W 122°23'4 7.6
2018-Jun-14 14:30N 47°23' W 122°21'3 6.4
2018-Jun-14 14:00N 47°21' W 122°24'3 6.0
2018-Jun-14 13:30N 47°19' W 122°27'2 4.5
2018-Jun-14 13:00N 47°17' W 122°27'1 2.4
2018-Jun-14 12:30N 47°16' W 122°26'0 0.0
2018-Jun-14 12:00N 47°16' W 122°26'0 0.0
2018-Jun-14 11:30N 47°16' W 122°26'0 0.0
2018-Jun-14 11:00N 47°16' W 122°26'0 0.0
2018-Jun-14 10:30N 47°16' W 122°26'0 0.0
2018-Jun-14 10:00N 47°16' W 122°26'0 0.0
2018-Jun-14 09:30N 47°16' W 122°26'0 0.0
2018-Jun-14 09:00N 47°16' W 122°26'0 0.0
2018-Jun-14 08:30N 47°16' W 122°26'0 0.0
2018-Jun-14 08:00N 47°16' W 122°26'0 0.0
2018-Jun-14 07:30N 47°16' W 122°26'0 0.0
2018-Jun-14 07:00N 47°16' W 122°26'0 0.0
2018-Jun-14 06:30N 47°16' W 122°26'0 0.0
2018-Jun-14 06:00N 47°16' W 122°26'0 0.0
2018-Jun-14 05:30N 47°16' W 122°26'0 0.0
2018-Jun-14 05:00N 47°16' W 122°26'1 2.0
2018-Jun-14 04:30N 47°16' W 122°27'1 2.5
2018-Jun-14 04:00N 47°18' W 122°27'2 3.4
2018-Jun-14 03:30N 47°19' W 122°28'2 4.9
2018-Jun-14 03:00N 47°21' W 122°25'2 5.0
2018-Jun-14 02:30N 47°23' W 122°23'3 5.2
2018-Jun-14 02:00N 47°25' W 122°24'3 5.7
2018-Jun-14 01:30N 47°28' W 122°25'3 5.5
2018-Jun-14 01:00N 47°30' W 122°26'3 5.9
2018-Jun-14 00:30N 47°33' W 122°27'3 6.2
2018-Jun-14 00:00N 47°36' W 122°28'3 6.1
2018-Jun-13 23:30N 47°39' W 122°28'3 6.2
2018-Jun-13 23:00N 47°42' W 122°28'3 6.2
2018-Jun-13 22:30N 47°46' W 122°27'3 5.9
2018-Jun-13 22:00N 47°48' W 122°28'3 6.1
2018-Jun-13 21:30N 47°51' W 122°29'  
Track history (hours):
 
Tides and Currents Weather Stations Pressure Air Temp Water Temp Dewpoint Dewpoint Depression Visibility Wind Speed Wind Dir Waves Ship Positions

C E

Owner: Harley Marine Services, Inc, Seattle, WA. More information available from US FCC via Universal Licensing System and Coast Guard Vessel Documentation Center.

Last reported at 2018-Jun-23 21:18 UTC. Time now 2018-Jun-23 21:32 UTC.
Position N 47°16' W 122°25'.

Length 30 m; draft 6 m.

Type: Tow > 200 m length. MMSI: 367705050.

Date/timePositionNaut miles runAvg speedWind from/ knotsBaromVisibWave heightAir tempDewpointWater temp
2018-Jun-23 21:18N 47°16' W 122°25'0 0.0
2018-Jun-23 20:49N 47°16' W 122°25'0 0.0
2018-Jun-23 20:10N 47°16' W 122°25'0 0.0
2018-Jun-23 19:56N 47°16' W 122°25'0 0.0
2018-Jun-23 19:18N 47°16' W 122°25'0 0.0
2018-Jun-23 17:17N 47°16' W 122°25'0 0.0
2018-Jun-23 16:52N 47°16' W 122°25'0 0.2
2018-Jun-23 16:28N 47°16' W 122°25'1 2.0
2018-Jun-23 15:57N 47°16' W 122°26'0 0.7
2018-Jun-23 15:25N 47°16' W 122°26'0 0.0
2018-Jun-23 14:59N 47°16' W 122°26'0 0.0
2018-Jun-23 14:29N 47°16' W 122°26'0 0.0
2018-Jun-23 13:59N 47°16' W 122°26'0 0.0
2018-Jun-23 13:21N 47°16' W 122°26'0 0.0
2018-Jun-23 12:58N 47°16' W 122°26'0 0.0
2018-Jun-23 12:14N 47°16' W 122°26'0 0.0
2018-Jun-23 11:47N 47°16' W 122°26'0 0.0
2018-Jun-23 11:29N 47°16' W 122°26'0 0.0
2018-Jun-23 11:00N 47°16' W 122°26'0 0.0
2018-Jun-23 10:30N 47°16' W 122°26'0 0.0
2018-Jun-23 09:37N 47°16' W 122°26'0 0.0
2018-Jun-23 09:30N 47°16' W 122°26'0 0.0
2018-Jun-23 08:49N 47°16' W 122°26'0 0.0
2018-Jun-23 08:22N 47°16' W 122°26'0 0.0
2018-Jun-23 07:59N 47°16' W 122°26'0 0.0
2018-Jun-23 06:56N 47°16' W 122°26'0 0.0
2018-Jun-23 06:30N 47°16' W 122°26'0 0.0
2018-Jun-23 05:54N 47°16' W 122°26'0 0.0
2018-Jun-23 05:27N 47°16' W 122°26'0 0.0
2018-Jun-23 05:00N 47°16' W 122°26'1 1.5
2018-Jun-23 04:21N 47°16' W 122°27'0 1.0
2018-Jun-23 03:58N 47°17' W 122°27'1 0.9
2018-Jun-23 03:23N 47°17' W 122°28'1 2.1
2018-Jun-23 03:00N 47°18' W 122°28'2 4.5
2018-Jun-23 02:30N 47°20' W 122°27'3 5.1
2018-Jun-23 01:58N 47°22' W 122°24'2 4.9
2018-Jun-23 01:30N 47°23' W 122°22'2 4.9
2018-Jun-23 01:00N 47°26' W 122°24'3 5.0
2018-Jun-23 00:30N 47°28' W 122°25'2 4.9
2018-Jun-23 00:00N 47°30' W 122°26'2 4.9
2018-Jun-22 23:30N 47°33' W 122°27'3 5.0
2018-Jun-22 23:00N 47°35' W 122°28'2 4.8
2018-Jun-22 22:30N 47°37' W 122°28'2 4.4
2018-Jun-22 22:00N 47°40' W 122°28'2 4.1
2018-Jun-22 21:30N 47°42' W 122°28'2 4.1
2018-Jun-22 21:00N 47°44' W 122°28'2 4.6
2018-Jun-22 20:30N 47°46' W 122°27'2 4.4
2018-Jun-22 20:00N 47°48' W 122°28'2 4.6
2018-Jun-22 19:30N 47°50' W 122°28'3 5.0
2018-Jun-22 19:00N 47°53' W 122°29'3 5.3
2018-Jun-22 18:30N 47°55' W 122°31'3 6.0
2018-Jun-22 17:59N 47°57' W 122°35'3 6.0
2018-Jun-22 17:29N 47°60' W 122°37'21 4.8
2018-Jun-22 13:01N 48°20' W 122°47'1 5.8
2018-Jun-22 12:50N 48°21' W 122°46'2 5.8
2018-Jun-22 12:28N 48°23' W 122°45'3 5.9
2018-Jun-22 12:00N 48°26' W 122°45'3 5.9
2018-Jun-22 11:30N 48°29' W 122°45'4 7.0
2018-Jun-22 11:00N 48°32' W 122°45'4 7.3
2018-Jun-22 10:29N 48°36' W 122°45'3 6.0
2018-Jun-22 10:00N 48°38' W 122°44'3 5.4
2018-Jun-22 09:30N 48°41' W 122°44'3 4.3
2018-Jun-22 08:53N 48°44' W 122°46'2 3.7
2018-Jun-22 08:27N 48°45' W 122°46'2 4.4
2018-Jun-22 07:59N 48°47' W 122°45'2 0.2
2018-Jun-21 22:50N 48°49' W 122°43'1 1.9
2018-Jun-21 22:21N 48°48' W 122°44'1 2.9
2018-Jun-21 21:56N 48°47' W 122°44'2 3.5
2018-Jun-21 21:30N 48°45' W 122°45'2 4.4
2018-Jun-21 21:00N 48°43' W 122°44'2 3.2
2018-Jun-21 20:30N 48°42' W 122°43'2 3.1
2018-Jun-21 20:00N 48°40' W 122°42'2 3.7
2018-Jun-21 19:30N 48°39' W 122°43'2 3.4
2018-Jun-21 19:00N 48°37' W 122°44'2 4.3
2018-Jun-21 18:30N 48°35' W 122°45'3 5.1
2018-Jun-21 18:00N 48°33' W 122°45'2 5.0
2018-Jun-21 17:30N 48°30' W 122°44'24 5.9
2018-Jun-21 13:31N 48°07' W 122°39'1 8.8
2018-Jun-21 13:27N 48°06' W 122°39'5 9.2
2018-Jun-21 12:58N 48°02' W 122°37'5 9.1
2018-Jun-21 12:24N 47°57' W 122°33'3 8.5
2018-Jun-21 12:00N 47°56' W 122°29'4 8.7
2018-Jun-21 11:30N 47°51' W 122°27'4 8.1
2018-Jun-21 11:00N 47°47' W 122°26'4 7.9
2018-Jun-21 10:30N 47°43' W 122°26'4 8.0
2018-Jun-21 10:00N 47°40' W 122°27'4 7.9
2018-Jun-21 09:30N 47°36' W 122°26'4 7.6
2018-Jun-21 09:00N 47°32' W 122°25'4 7.6
2018-Jun-21 08:30N 47°28' W 122°24'4 7.3
2018-Jun-21 08:00N 47°25' W 122°22'3 5.8
2018-Jun-21 07:30N 47°22' W 122°22'4 7.3
2018-Jun-21 07:00N 47°20' W 122°26'3 5.5
2018-Jun-21 06:30N 47°17' W 122°27'1 2.7
2018-Jun-21 06:00N 47°16' W 122°26'0 0.0
2018-Jun-21 05:30N 47°16' W 122°26'0 0.0
2018-Jun-21 05:00N 47°16' W 122°26'0 0.0
2018-Jun-21 04:30N 47°16' W 122°26'0 0.0
2018-Jun-21 04:00N 47°16' W 122°26'0 0.0
2018-Jun-21 03:30N 47°16' W 122°26'0 0.0
2018-Jun-21 03:00N 47°16' W 122°26'0 0.0
2018-Jun-21 02:30N 47°16' W 122°26'1 2.9
2018-Jun-21 02:00N 47°17' W 122°25'1 0.4
2018-Jun-20 23:02N 47°16' W 122°24'0 4.6
2018-Jun-20 22:59N 47°16' W 122°24'2 3.2
2018-Jun-20 22:30N 47°16' W 122°26'0 0.0
2018-Jun-20 22:00N 47°16' W 122°26'0 0.0
2018-Jun-20 21:30N 47°16' W 122°26'0 0.0
2018-Jun-20 21:00N 47°16' W 122°26'0 0.0
2018-Jun-20 20:30N 47°16' W 122°26'0 0.0
2018-Jun-20 20:00N 47°16' W 122°26'0 0.0
2018-Jun-20 19:30N 47°16' W 122°26'0 0.0
2018-Jun-20 19:00N 47°16' W 122°26'0 0.0
2018-Jun-20 18:30N 47°16' W 122°26'0 0.0
2018-Jun-20 18:00N 47°16' W 122°26'0 0.0
2018-Jun-20 17:30N 47°16' W 122°26'0 0.0
2018-Jun-20 17:00N 47°16' W 122°26'0 0.0
2018-Jun-20 16:30N 47°16' W 122°26'0 0.0
2018-Jun-20 16:00N 47°16' W 122°26'0 0.0
2018-Jun-20 15:30N 47°16' W 122°26'2 3.2
2018-Jun-20 15:00N 47°17' W 122°27'1 2.4
2018-Jun-20 14:30N 47°18' W 122°28'3 5.8
2018-Jun-20 14:00N 47°21' W 122°26'3 6.2
2018-Jun-20 13:30N 47°23' W 122°23'3 5.1
2018-Jun-20 13:00N 47°25' W 122°23'3 5.7
2018-Jun-20 12:30N 47°28' W 122°25'3 5.6
2018-Jun-20 12:00N 47°30' W 122°26'3 5.8
2018-Jun-20 11:30N 47°33' W 122°27'3 5.4
2018-Jun-20 11:00N 47°36' W 122°28'3 5.4
2018-Jun-20 10:30N 47°39' W 122°28'3 5.3
2018-Jun-20 10:00N 47°41' W 122°28'3 5.5
2018-Jun-20 09:30N 47°44' W 122°27'3 5.1
2018-Jun-20 09:00N 47°46' W 122°27'3 5.5
2018-Jun-20 08:30N 47°49' W 122°28'3 5.4
2018-Jun-20 08:00N 47°52' W 122°29'3 5.1
2018-Jun-20 07:30N 47°54' W 122°30'3 5.4
2018-Jun-20 06:55N 47°56' W 122°33'3 5.7
2018-Jun-20 06:28N 47°58' W 122°36'3 6.6
2018-Jun-20 06:00N 48°01' W 122°38'18 6.3
2018-Jun-20 03:11N 48°17' W 122°48'1 6.3
2018-Jun-20 03:00N 48°18' W 122°47'4 6.2
2018-Jun-20 02:17N 48°23' W 122°46'2 5.6
2018-Jun-20 01:59N 48°24' W 122°45'3 6.0
2018-Jun-20 01:30N 48°27' W 122°44'3 5.8
2018-Jun-20 01:00N 48°30' W 122°45'3 6.2
2018-Jun-20 00:30N 48°33' W 122°45'3 6.3
2018-Jun-20 00:00N 48°36' W 122°45'4 7.4
2018-Jun-19 23:30N 48°40' W 122°44'4 7.0
2018-Jun-19 22:56N 48°44' W 122°46'4 0.5
2018-Jun-19 13:59N 48°48' W 122°45'3 3.8
2018-Jun-19 13:07N 48°44' W 122°45'1 4.4
2018-Jun-19 12:57N 48°44' W 122°44'2 5.0
2018-Jun-19 12:30N 48°42' W 122°43'3 5.0
2018-Jun-19 12:00N 48°40' W 122°41'2 4.3
2018-Jun-19 11:30N 48°38' W 122°39'3 5.3
2018-Jun-19 11:00N 48°36' W 122°36'3 5.8
2018-Jun-19 10:29N 48°33' W 122°34'2 3.5
2018-Jun-19 10:00N 48°32' W 122°35'1 1.8
2018-Jun-19 09:30N 48°31' W 122°36'0 0.0
2018-Jun-19 09:00N 48°31' W 122°36'0 0.0
2018-Jun-19 08:30N 48°31' W 122°36'0 0.0
2018-Jun-19 08:00N 48°31' W 122°36'0 0.0
2018-Jun-19 07:30N 48°31' W 122°36'0 0.0
2018-Jun-19 07:00N 48°31' W 122°36'0 0.0
2018-Jun-19 06:30N 48°31' W 122°36'0 0.0
2018-Jun-19 06:00N 48°31' W 122°36'0 0.0
2018-Jun-19 05:30N 48°31' W 122°36'0 0.0
2018-Jun-19 05:00N 48°31' W 122°36'0 0.0
2018-Jun-19 04:30N 48°31' W 122°36'0 0.0
2018-Jun-19 04:00N 48°31' W 122°36'0 0.0
2018-Jun-19 03:30N 48°31' W 122°36'0 0.0
2018-Jun-19 03:00N 48°31' W 122°36'0 0.0
2018-Jun-19 02:30N 48°31' W 122°36'0 0.0
2018-Jun-19 02:00N 48°31' W 122°36'0 0.0
2018-Jun-19 01:30N 48°31' W 122°36'0 0.0
2018-Jun-19 01:00N 48°31' W 122°36'0 0.0
2018-Jun-19 00:30N 48°31' W 122°36'0 0.0
2018-Jun-19 00:00N 48°31' W 122°36'0 0.0
2018-Jun-18 23:30N 48°31' W 122°36'0 0.0
2018-Jun-18 23:00N 48°31' W 122°36'0 0.0
2018-Jun-18 22:30N 48°31' W 122°36'0 0.0
2018-Jun-18 22:00N 48°31' W 122°36'0 0.0
2018-Jun-18 21:30N 48°31' W 122°36'0 0.0
2018-Jun-18 21:00N 48°31' W 122°36'0 0.0
2018-Jun-18 20:30N 48°31' W 122°36'0 0.0
2018-Jun-18 20:00N 48°31' W 122°36'0 0.0
2018-Jun-18 19:30N 48°31' W 122°36'0 0.0
2018-Jun-18 19:00N 48°31' W 122°36'0 0.0
2018-Jun-18 18:30N 48°31' W 122°36'0 0.0
2018-Jun-18 18:00N 48°31' W 122°36'0 0.0
2018-Jun-18 17:30N 48°31' W 122°36'0 0.0
2018-Jun-18 17:00N 48°31' W 122°36'0 0.0
2018-Jun-18 16:30N 48°31' W 122°36'0 0.0
2018-Jun-18 16:00N 48°31' W 122°36'0 0.0
2018-Jun-18 15:30N 48°31' W 122°36'0 0.0
2018-Jun-18 15:00N 48°31' W 122°36'0 0.0
2018-Jun-18 14:30N 48°31' W 122°36'0 0.0
2018-Jun-18 14:00N 48°31' W 122°36'0 0.0
2018-Jun-18 13:30N 48°31' W 122°36'0 0.0
2018-Jun-18 13:00N 48°31' W 122°36'0 0.0
2018-Jun-18 12:30N 48°31' W 122°36'0 0.0
2018-Jun-18 12:00N 48°31' W 122°36'0 0.0
2018-Jun-18 11:30N 48°31' W 122°36'0 0.0
2018-Jun-18 11:00N 48°31' W 122°36'0 0.0
2018-Jun-18 10:30N 48°31' W 122°36'0 0.0
2018-Jun-18 10:00N 48°31' W 122°36'0 0.0
2018-Jun-18 09:30N 48°31' W 122°36'0 0.0
2018-Jun-18 09:00N 48°31' W 122°36'0 0.0
2018-Jun-18 08:30N 48°31' W 122°36'0 0.0
2018-Jun-18 08:00N 48°31' W 122°36'0 0.0
2018-Jun-18 07:30N 48°31' W 122°36'0 0.0
2018-Jun-18 07:00N 48°31' W 122°36'0 0.0
2018-Jun-18 06:30N 48°31' W 122°36'0 0.0
2018-Jun-18 06:00N 48°31' W 122°36'0 0.0
2018-Jun-18 05:30N 48°31' W 122°36'0 0.0
2018-Jun-18 05:00N 48°31' W 122°36'0 0.0
2018-Jun-18 04:30N 48°31' W 122°36'0 0.0
2018-Jun-18 04:00N 48°31' W 122°36'0 0.0
2018-Jun-18 03:30N 48°31' W 122°36'0 0.0
2018-Jun-18 03:00N 48°31' W 122°36'0 0.0
2018-Jun-18 02:30N 48°31' W 122°36'0 0.0
2018-Jun-18 02:00N 48°31' W 122°36'0 0.0
2018-Jun-18 01:30N 48°31' W 122°36'1 1.1
2018-Jun-18 01:00N 48°31' W 122°37'4 8.3
2018-Jun-18 00:29N 48°30' W 122°43'2 3.6
2018-Jun-18 00:00N 48°28' W 122°44'4 6.5
2018-Jun-17 23:27N 48°25' W 122°44'19 5.7
2018-Jun-17 20:05N 48°06' W 122°39'310.3
2018-Jun-17 19:47N 48°02' W 122°38'310.0
2018-Jun-17 19:28N 47°60' W 122°36'4 9.5
2018-Jun-17 19:00N 47°57' W 122°31'4 8.2
2018-Jun-17 18:30N 47°53' W 122°28'4 7.9
2018-Jun-17 18:00N 47°49' W 122°27'4 7.6
2018-Jun-17 17:30N 47°45' W 122°26'4 7.4
2018-Jun-17 17:00N 47°42' W 122°27'4 7.2
2018-Jun-17 16:30N 47°38' W 122°27'4 7.2
2018-Jun-17 16:00N 47°35' W 122°26'4 7.1
2018-Jun-17 15:30N 47°31' W 122°25'3 6.9
2018-Jun-17 15:00N 47°28' W 122°24'3 6.9
2018-Jun-17 14:30N 47°25' W 122°22'3 5.9
2018-Jun-17 14:00N 47°22' W 122°22'3 6.8
2018-Jun-17 13:30N 47°20' W 122°26'2 4.4
2018-Jun-17 13:00N 47°18' W 122°27'1 2.6
2018-Jun-17 12:30N 47°16' W 122°27'1 1.7
2018-Jun-17 12:00N 47°16' W 122°26'0 0.0
2018-Jun-17 11:30N 47°16' W 122°26'0 0.0
2018-Jun-17 10:59N 47°16' W 122°26'0 0.0
2018-Jun-17 10:29N 47°16' W 122°26'0 0.0
2018-Jun-17 10:00N 47°16' W 122°26'0 0.0
2018-Jun-17 09:30N 47°16' W 122°26'0 0.0
2018-Jun-17 09:00N 47°16' W 122°26'0 0.0
2018-Jun-17 08:30N 47°16' W 122°26'0 0.0
2018-Jun-17 08:00N 47°16' W 122°26'0 0.0
2018-Jun-17 07:30N 47°16' W 122°26'0 0.0
2018-Jun-17 07:00N 47°16' W 122°26'0 0.0
2018-Jun-17 06:30N 47°16' W 122°26'0 0.0
2018-Jun-17 06:00N 47°16' W 122°26'0 0.0
2018-Jun-17 05:30N 47°16' W 122°26'0 0.0
2018-Jun-17 05:00N 47°16' W 122°26'0 0.0
2018-Jun-17 04:30N 47°16' W 122°26'0 0.0
2018-Jun-17 04:00N 47°16' W 122°26'0 0.0
2018-Jun-17 03:29N 47°16' W 122°26'0 0.0
2018-Jun-17 03:00N 47°16' W 122°26'0 0.0
2018-Jun-17 02:30N 47°16' W 122°26'0 0.0
2018-Jun-17 02:00N 47°16' W 122°26'0 0.0
2018-Jun-17 01:30N 47°16' W 122°26'0 0.0
2018-Jun-17 01:00N 47°16' W 122°26'0 0.0
2018-Jun-17 00:30N 47°16' W 122°26'0 0.0
2018-Jun-17 00:00N 47°16' W 122°26'0 0.0
2018-Jun-16 23:30N 47°16' W 122°26'0 0.0
2018-Jun-16 23:00N 47°16' W 122°26'0 0.0
2018-Jun-16 22:30N 47°16' W 122°26'0 0.0
2018-Jun-16 22:00N 47°16' W 122°26'0 0.0
2018-Jun-16 21:30N 47°16' W 122°26'0 0.0
2018-Jun-16 21:00N 47°16' W 122°26'1 2.1
2018-Jun-16 20:30N 47°16' W 122°27'2 3.1
2018-Jun-16 20:00N 47°18' W 122°28'0 0.8
2018-Jun-16 19:30N 47°18' W 122°28'2 4.8
2018-Jun-16 19:00N 47°20' W 122°27'3 5.2
2018-Jun-16 18:30N 47°22' W 122°24'2 4.6
2018-Jun-16 18:00N 47°24' W 122°23'3 5.5
2018-Jun-16 17:30N 47°27' W 122°25'3 5.2
2018-Jun-16 17:00N 47°29' W 122°26'3 5.2
2018-Jun-16 16:30N 47°32' W 122°27'3 5.5
2018-Jun-16 16:00N 47°34' W 122°28'3 5.4
2018-Jun-16 15:30N 47°37' W 122°28'3 5.5
2018-Jun-16 15:00N 47°40' W 122°28'3 5.7
2018-Jun-16 14:30N 47°43' W 122°28'3 5.8
2018-Jun-16 14:00N 47°45' W 122°27'3 5.5
2018-Jun-16 13:30N 47°48' W 122°28'3 5.4
2018-Jun-16 13:00N 47°51' W 122°29'3 5.4
2018-Jun-16 12:30N 47°53' W 122°30'3 5.4
2018-Jun-16 12:00N 47°56' W 122°32'4 6.4
2018-Jun-16 11:19N 47°59' W 122°36'2 6.0
2018-Jun-16 10:58N 48°01' W 122°38'3 5.8
2018-Jun-16 10:30N 48°03' W 122°39'25 5.1
2018-Jun-16 05:39N 48°27' W 122°45'11 5.1
2018-Jun-16 03:29N 48°38' W 122°44'3 4.0
2018-Jun-16 02:37N 48°42' W 122°45'1 3.9
2018-Jun-16 02:29N 48°42' W 122°45'4 2.4
2018-Jun-16 00:36N 48°47' W 122°45'0 0.0
2018-Jun-15 11:51N 48°47' W 122°46'2 3.2
2018-Jun-15 11:16N 48°45' W 122°45'1 3.2
2018-Jun-15 10:59N 48°44' W 122°45'2 3.3
2018-Jun-15 10:30N 48°43' W 122°44'3 5.9
2018-Jun-15 10:00N 48°40' W 122°42'3 5.9
2018-Jun-15 09:30N 48°37' W 122°44'3 5.8
2018-Jun-15 09:00N 48°34' W 122°45'3 5.7
2018-Jun-15 08:30N 48°31' W 122°45'3 5.6
2018-Jun-15 07:59N 48°29' W 122°44'2 5.1
2018-Jun-15 07:30N 48°26' W 122°44'20 5.7
2018-Jun-15 03:59N 48°06' W 122°39'5 7.8
2018-Jun-15 03:22N 48°02' W 122°37'3 7.5
2018-Jun-15 02:55N 47°59' W 122°34'3 7.4
2018-Jun-15 02:30N 47°57' W 122°31'3 5.9
2018-Jun-15 02:00N 47°54' W 122°28'3 5.9
2018-Jun-15 01:30N 47°51' W 122°27'3 6.9
2018-Jun-15 01:00N 47°48' W 122°26'3 6.7
2018-Jun-15 00:30N 47°45' W 122°26'3 5.8
2018-Jun-15 00:01N 47°42' W 122°26'2 4.7
2018-Jun-14 23:30N 47°39' W 122°27'3 6.3
2018-Jun-14 23:00N 47°37' W 122°24'3 5.5
2018-Jun-14 22:30N 47°35' W 122°21'0 0.2
2018-Jun-14 22:00N 47°35' W 122°21'1 1.8
2018-Jun-14 21:30N 47°34' W 122°21'0 0.0
2018-Jun-14 21:00N 47°34' W 122°21'0 0.0
2018-Jun-14 20:30N 47°34' W 122°21'0 0.0
2018-Jun-14 20:00N 47°34' W 122°21'0 0.0
2018-Jun-14 19:30N 47°34' W 122°21'0 0.0
2018-Jun-14 18:59N 47°34' W 122°21'0 0.0
2018-Jun-14 18:30N 47°34' W 122°21'0 0.0
2018-Jun-14 18:00N 47°34' W 122°21'1 1.8
2018-Jun-14 17:30N 47°35' W 122°21'0 0.6
2018-Jun-14 17:00N 47°36' W 122°21'1 2.3
2018-Jun-14 16:30N 47°36' W 122°22'3 6.1
2018-Jun-14 16:00N 47°34' W 122°26'4 7.8
2018-Jun-14 15:30N 47°31' W 122°25'4 8.0
2018-Jun-14 15:00N 47°27' W 122°23'4 7.6
2018-Jun-14 14:30N 47°23' W 122°21'3 6.4
2018-Jun-14 14:00N 47°21' W 122°24'3 6.0
2018-Jun-14 13:30N 47°19' W 122°27'2 4.5
2018-Jun-14 13:00N 47°17' W 122°27'1 2.4
2018-Jun-14 12:30N 47°16' W 122°26'0 0.0
2018-Jun-14 12:00N 47°16' W 122°26'0 0.0
2018-Jun-14 11:30N 47°16' W 122°26'0 0.0
2018-Jun-14 11:00N 47°16' W 122°26'0 0.0
2018-Jun-14 10:30N 47°16' W 122°26'0 0.0
2018-Jun-14 10:00N 47°16' W 122°26'0 0.0
2018-Jun-14 09:30N 47°16' W 122°26'0 0.0
2018-Jun-14 09:00N 47°16' W 122°26'0 0.0
2018-Jun-14 08:30N 47°16' W 122°26'0 0.0
2018-Jun-14 08:00N 47°16' W 122°26'0 0.0
2018-Jun-14 07:30N 47°16' W 122°26'0 0.0
2018-Jun-14 07:00N 47°16' W 122°26'0 0.0
2018-Jun-14 06:30N 47°16' W 122°26'0 0.0
2018-Jun-14 06:00N 47°16' W 122°26'0 0.0
2018-Jun-14 05:30N 47°16' W 122°26'0 0.0
2018-Jun-14 05:00N 47°16' W 122°26'1 2.0
2018-Jun-14 04:30N 47°16' W 122°27'1 2.5
2018-Jun-14 04:00N 47°18' W 122°27'2 3.4
2018-Jun-14 03:30N 47°19' W 122°28'2 4.9
2018-Jun-14 03:00N 47°21' W 122°25'2 5.0
2018-Jun-14 02:30N 47°23' W 122°23'3 5.2
2018-Jun-14 02:00N 47°25' W 122°24'3 5.7
2018-Jun-14 01:30N 47°28' W 122°25'3 5.5
2018-Jun-14 01:00N 47°30' W 122°26'3 5.9
2018-Jun-14 00:30N 47°33' W 122°27'3 6.2
2018-Jun-14 00:00N 47°36' W 122°28'3 6.1
2018-Jun-13 23:30N 47°39' W 122°28'3 6.2
2018-Jun-13 23:00N 47°42' W 122°28'3 6.2
2018-Jun-13 22:30N 47°46' W 122°27'3 5.9
2018-Jun-13 22:00N 47°48' W 122°28'3 6.1
2018-Jun-13 21:30N 47°51' W 122°29'  

Dump ship's entire track history